メインページ
METAR-TAF:

METAR-TAF

空港 :

プリンストン, ブリティッシュコロンビア州, カナダ

緯度: 49-28N, 経度: 120-31W, 海抜: 700m

現時点の気象観測

当レポートは59分前の00:00(UTC)に作成
東/南東の風 9kt、東/北東から南東の間で変化する
気温 17°C
湿度 55%
気圧 1014 hPa
視程: 40.2km
高度6500ftの雲はほとんどない, 塔状積雲.
高度10000ftの雲は散在している
高度12000ftの千切れ雲あり
高度26000ftの千切れ雲あり

METAR: CYDC 240000Z 11009KT 070V130 25SM FEW065TCU SCT100 BKN120 BKN260 17/08 A2993 RMK TCU1AC3AC1CI1 CI TR SLP135 DENSITY ALT 3100FT

時間: 17:59 (00:59 UTC)


TAF: 見つかりません

4,000以上の空港の気象観測と天気予報(METAR報とTAF報)

利用可能な観測所は地図上に黄色い丸と赤い丸で示す。

丸の上にカーソルを重ねると観測所名を参照できる。

次にクリックすると気象観測と天気予報を参照できる。

マップの切り替え:黒色「×」印の緑ボタンをクリックして拡大、「-」印の緑ボタンをクリックして縮小、緑色の三角印をクリックして隣りの地図に切り替え


METAR-TAF: